sensor_id;sensor_type;location;lat;lon;timestamp;pressure;altitude;pressure_sealevel;temperature;humidity
52319;BME280;38258;51.148;14.068;2022-10-04T00:01:04;98863.00;;;10.08;100.00
52319;BME280;38258;51.148;14.068;2022-10-04T00:03:37;98862.09;;;10.12;100.00
52319;BME280;38258;51.148;14.068;2022-10-04T00:06:16;98864.63;;;10.15;100.00
52319;BME280;38258;51.148;14.068;2022-10-04T00:08:48;98875.03;;;10.18;100.00
52319;BME280;38258;51.148;14.068;2022-10-04T00:11:22;98873.28;;;10.19;100.00
52319;BME280;38258;51.148;14.068;2022-10-04T00:13:51;98864.66;;;10.14;100.00
52319;BME280;38258;51.148;14.068;2022-10-04T00:16:25;98864.78;;;10.06;100.00
52319;BME280;38258;51.148;14.068;2022-10-04T00:22:18;98862.03;;;10.14;100.00
52319;BME280;38258;51.148;14.068;2022-10-04T00:25:17;98869.94;;;10.09;100.00
52319;BME280;38258;51.148;14.068;2022-10-04T00:28:14;98865.53;;;10.13;100.00
52319;BME280;38258;51.148;14.068;2022-10-04T00:30:42;98870.59;;;10.22;100.00
52319;BME280;38258;51.148;14.068;2022-10-04T00:33:10;98867.94;;;10.24;100.00
52319;BME280;38258;51.148;14.068;2022-10-04T00:35:57;98870.69;;;10.16;100.00
52319;BME280;38258;51.148;14.068;2022-10-04T00:38:25;98862.91;;;10.14;100.00
52319;BME280;38258;51.148;14.068;2022-10-04T00:40:57;98860.38;;;10.10;100.00
52319;BME280;38258;51.148;14.068;2022-10-04T00:43:29;98862.91;;;10.14;100.00
52319;BME280;38258;51.148;14.068;2022-10-04T00:46:02;98871.69;;;10.10;100.00
52319;BME280;38258;51.148;14.068;2022-10-04T00:48:40;98871.66;;;10.13;100.00
52319;BME280;38258;51.148;14.068;2022-10-04T00:51:12;98862.91;;;10.14;100.00
52319;BME280;38258;51.148;14.068;2022-10-04T00:53:52;98862.03;;;10.14;100.00
52319;BME280;38258;51.148;14.068;2022-10-04T00:56:28;98861.22;;;10.10;100.00
52319;BME280;38258;51.148;14.068;2022-10-04T00:59:10;98850.16;;;9.96;100.00
52319;BME280;38258;51.148;14.068;2022-10-04T01:01:39;98863.81;;;10.12;100.00
52319;BME280;38258;51.148;14.068;2022-10-04T01:04:23;98859.53;;;10.08;100.00
52319;BME280;38258;51.148;14.068;2022-10-04T01:06:53;98856.84;;;10.12;100.00
52319;BME280;38258;51.148;14.068;2022-10-04T01:09:21;98862.16;;;10.08;100.00
52319;BME280;38258;51.148;14.068;2022-10-04T01:11:56;98843.00;;;10.07;100.00
52319;BME280;38258;51.148;14.068;2022-10-04T01:14:30;98852.69;;;10.02;100.00
52319;BME280;38258;51.148;14.068;2022-10-04T01:17:01;98851.72;;;10.06;100.00
52319;BME280;38258;51.148;14.068;2022-10-04T01:19:30;98856.88;;;10.11;100.00
52319;BME280;38258;51.148;14.068;2022-10-04T01:22:09;98857.84;;;10.05;100.00
52319;BME280;38258;51.148;14.068;2022-10-04T01:24:39;98853.44;;;10.07;100.00
52319;BME280;38258;51.148;14.068;2022-10-04T01:27:30;98845.72;;;10.01;100.00
52319;BME280;38258;51.148;14.068;2022-10-04T01:29:58;98849.09;;;10.06;100.00
52319;BME280;38258;51.148;14.068;2022-10-04T01:32:25;98850.91;;;10.04;100.00
52319;BME280;38258;51.148;14.068;2022-10-04T01:34:54;98848.22;;;10.07;100.00
52319;BME280;38258;51.148;14.068;2022-10-04T01:37:21;98840.44;;;10.04;100.00
52319;BME280;38258;51.148;14.068;2022-10-04T01:39:50;98851.94;;;9.95;100.00
52319;BME280;38258;51.148;14.068;2022-10-04T01:42:19;98843.06;;;10.02;100.00
52319;BME280;38258;51.148;14.068;2022-10-04T01:44:53;98852.75;;;9.99;100.00
52319;BME280;38258;51.148;14.068;2022-10-04T01:47:26;98851.84;;;10.00;100.00
52319;BME280;38258;51.148;14.068;2022-10-04T01:49:56;98846.63;;;9.98;100.00
52319;BME280;38258;51.148;14.068;2022-10-04T01:52:32;98850.06;;;10.02;100.00
52319;BME280;38258;51.148;14.068;2022-10-04T01:55:04;98844.84;;;10.00;100.00
52319;BME280;38258;51.148;14.068;2022-10-04T01:57:35;98849.25;;;9.98;100.00
52319;BME280;38258;51.148;14.068;2022-10-04T02:00:05;98842.28;;;9.99;100.00
52319;BME280;38258;51.148;14.068;2022-10-04T02:02:35;98838.88;;;9.94;100.00
52319;BME280;38258;51.148;14.068;2022-10-04T02:05:07;98844.16;;;9.92;100.00
52319;BME280;38258;51.148;14.068;2022-10-04T02:07:37;98839.75;;;9.94;100.00
52319;BME280;38258;51.148;14.068;2022-10-04T02:10:09;98837.22;;;9.91;100.00
52319;BME280;38258;51.148;14.068;2022-10-04T02:12:42;98830.25;;;9.90;100.00
52319;BME280;38258;51.148;14.068;2022-10-04T02:15:10;98833.66;;;9.94;100.00
52319;BME280;38258;51.148;14.068;2022-10-04T02:17:39;98834.53;;;9.93;100.00
52319;BME280;38258;51.148;14.068;2022-10-04T02:20:12;98833.72;;;9.90;100.00
52319;BME280;38258;51.148;14.068;2022-10-04T02:22:39;98823.41;;;9.83;100.00
52319;BME280;38258;51.148;14.068;2022-10-04T02:25:09;98826.75;;;9.91;100.00
52319;BME280;38258;51.148;14.068;2022-10-04T02:27:38;98831.19;;;9.86;100.00
52319;BME280;38258;51.148;14.068;2022-10-04T02:30:08;98822.38;;;9.92;100.00
52319;BME280;38258;51.148;14.068;2022-10-04T02:32:36;98831.25;;;9.83;100.00
52319;BME280;38258;51.148;14.068;2022-10-04T02:35:22;98823.41;;;9.83;100.00
52319;BME280;38258;51.148;14.068;2022-10-04T02:37:57;98814.75;;;9.79;100.00
52319;BME280;38258;51.148;14.068;2022-10-04T02:40:30;98826.97;;;9.79;100.00
52319;BME280;38258;51.148;14.068;2022-10-04T02:43:01;98819.06;;;9.82;100.00
52319;BME280;38258;51.148;14.068;2022-10-04T02:45:38;98830.44;;;9.79;100.00
52319;BME280;38258;51.148;14.068;2022-10-04T02:51:10;98826.03;;;9.81;100.00
52319;BME280;38258;51.148;14.068;2022-10-04T02:53:47;98825.19;;;9.81;100.00
52319;BME280;38258;51.148;14.068;2022-10-04T02:56:18;98821.78;;;9.77;100.00
52319;BME280;38258;51.148;14.068;2022-10-04T02:58:46;98815.50;;;9.86;100.00
52319;BME280;38258;51.148;14.068;2022-10-04T03:01:22;98806.25;;;9.68;100.00
52319;BME280;38258;51.148;14.068;2022-10-04T03:03:50;98819.97;;;9.79;100.00
52319;BME280;38258;51.148;14.068;2022-10-04T03:06:21;98826.09;;;9.78;100.00
52319;BME280;38258;51.148;14.068;2022-10-04T03:08:51;98819.91;;;9.82;100.00
52319;BME280;38258;51.148;14.068;2022-10-04T03:11:23;98825.28;;;9.76;100.00
52319;BME280;38258;51.148;14.068;2022-10-04T03:13:53;98818.31;;;9.75;100.00
52319;BME280;38258;51.148;14.068;2022-10-04T03:16:21;98826.31;;;9.66;100.00
52319;BME280;38258;51.148;14.068;2022-10-04T03:18:50;98822.78;;;9.70;100.00
52319;BME280;38258;51.148;14.068;2022-10-04T03:21:20;98831.47;;;9.70;100.00
52319;BME280;38258;51.148;14.068;2022-10-04T03:23:49;98825.47;;;9.64;100.00
52319;BME280;38258;51.148;14.068;2022-10-04T03:26:26;98821.91;;;9.69;100.00
52319;BME280;38258;51.148;14.068;2022-10-04T03:28:53;98810.72;;;9.62;100.00
52319;BME280;38258;51.148;14.068;2022-10-04T03:31:21;98812.50;;;9.59;100.00
52319;BME280;38258;51.148;14.068;2022-10-04T03:33:49;98816.81;;;9.63;100.00
52319;BME280;38258;51.148;14.068;2022-10-04T03:36:17;98816.91;;;9.57;100.00
52319;BME280;38258;51.148;14.068;2022-10-04T03:38:45;98816.81;;;9.63;100.00
52319;BME280;38258;51.148;14.068;2022-10-04T03:41:14;98817.56;;;9.68;100.00
52319;BME280;38258;51.148;14.068;2022-10-04T03:43:45;98818.59;;;9.59;100.00
52319;BME280;38258;51.148;14.068;2022-10-04T03:46:15;98815.09;;;9.60;100.00
52319;BME280;38258;51.148;14.068;2022-10-04T03:48:45;98810.72;;;9.62;100.00
52319;BME280;38258;51.148;14.068;2022-10-04T03:51:18;98816.00;;;9.59;100.00
52319;BME280;38258;51.148;14.068;2022-10-04T03:53:47;98820.25;;;9.65;100.00
52319;BME280;38258;51.148;14.068;2022-10-04T03:56:17;98823.69;;;9.66;100.00
52319;BME280;38258;51.148;14.068;2022-10-04T03:58:48;98815.13;;;9.59;100.00
52319;BME280;38258;51.148;14.068;2022-10-04T04:01:34;98818.59;;;9.59;100.00
52319;BME280;38258;51.148;14.068;2022-10-04T04:04:15;98820.31;;;9.62;100.00
52319;BME280;38258;51.148;14.068;2022-10-04T04:06:50;98822.13;;;9.57;100.00
52319;BME280;38258;51.148;14.068;2022-10-04T04:09:22;98820.44;;;9.54;100.00
52319;BME280;38258;51.148;14.068;2022-10-04T04:11:53;98825.59;;;9.57;100.00
52319;BME280;38258;51.148;14.068;2022-10-04T04:14:25;98830.88;;;9.54;100.00
52319;BME280;38258;51.148;14.068;2022-10-04T04:16:54;98820.38;;;9.57;100.00
52319;BME280;38258;51.148;14.068;2022-10-04T04:19:42;98825.66;;;9.54;100.00
52319;BME280;38258;51.148;14.068;2022-10-04T04:22:14;98810.91;;;9.50;100.00
52319;BME280;38258;51.148;14.068;2022-10-04T04:24:43;98825.56;;;9.59;100.00
52319;BME280;38258;51.148;14.068;2022-10-04T04:27:12;98832.47;;;9.63;100.00
52319;BME280;38258;51.148;14.068;2022-10-04T04:29:45;98830.88;;;9.54;100.00
52319;BME280;38258;51.148;14.068;2022-10-04T04:32:17;98832.59;;;9.55;100.00
52319;BME280;38258;51.148;14.068;2022-10-04T04:34:51;98831.69;;;9.58;100.00
52319;BME280;38258;51.148;14.068;2022-10-04T04:37:18;98830.91;;;9.53;100.00
52319;BME280;38258;51.148;14.068;2022-10-04T04:39:48;98830.97;;;9.50;100.00
52319;BME280;38258;51.148;14.068;2022-10-04T04:42:28;98811.13;;;9.38;100.00
52319;BME280;38258;51.148;14.068;2022-10-04T04:44:58;98825.75;;;9.50;100.00
52319;BME280;38258;51.148;14.068;2022-10-04T04:47:28;98835.22;;;9.55;100.00
52319;BME280;38258;51.148;14.068;2022-10-04T04:50:04;98830.78;;;9.59;100.00
52319;BME280;38258;51.148;14.068;2022-10-04T04:52:32;98828.28;;;9.54;100.00
52319;BME280;38258;51.148;14.068;2022-10-04T04:54:59;98832.56;;;9.57;100.00
52319;BME280;38258;51.148;14.068;2022-10-04T04:57:27;98833.59;;;9.48;100.00
52319;BME280;38258;51.148;14.068;2022-10-04T04:59:56;98805.00;;;9.39;100.00
52319;BME280;38258;51.148;14.068;2022-10-04T05:02:31;98835.38;;;9.44;100.00
52319;BME280;38258;51.148;14.068;2022-10-04T05:05:21;98837.91;;;9.49;100.00
52319;BME280;38258;51.148;14.068;2022-10-04T05:07:49;98825.88;;;9.42;100.00
52319;BME280;38258;51.148;14.068;2022-10-04T05:10:31;98852.59;;;9.56;100.00
52319;BME280;38258;51.148;14.068;2022-10-04T05:12:59;98846.56;;;9.54;100.00
52319;BME280;38258;51.148;14.068;2022-10-04T05:15:31;98835.38;;;9.44;100.00
52319;BME280;38258;51.148;14.068;2022-10-04T05:17:59;98848.22;;;9.58;100.00
52319;BME280;38258;51.148;14.068;2022-10-04T05:20:29;98850.09;;;9.50;100.00
52319;BME280;38258;51.148;14.068;2022-10-04T05:22:58;98838.88;;;9.43;100.00
52319;BME280;38258;51.148;14.068;2022-10-04T05:25:29;98853.53;;;9.52;100.00
52319;BME280;38258;51.148;14.068;2022-10-04T05:27:58;98859.50;;;9.59;100.00
52319;BME280;38258;51.148;14.068;2022-10-04T05:30:37;98855.47;;;9.41;100.00
52319;BME280;38258;51.148;14.068;2022-10-04T05:33:08;98853.47;;;9.57;100.00
52319;BME280;38258;51.148;14.068;2022-10-04T05:35:58;98850.88;;;9.55;100.00
52319;BME280;38258;51.148;14.068;2022-10-04T05:38:34;98858.97;;;9.40;100.00
52319;BME280;38258;51.148;14.068;2022-10-04T05:41:07;98863.22;;;9.45;100.00
52319;BME280;38258;51.148;14.068;2022-10-04T05:43:35;98869.41;;;9.40;100.00
52319;BME280;38258;51.148;14.068;2022-10-04T05:46:12;98868.41;;;9.47;100.00
52319;BME280;38258;51.148;14.068;2022-10-04T05:48:41;98855.59;;;9.33;100.00
52319;BME280;38258;51.148;14.068;2022-10-04T05:51:17;98861.53;;;9.41;100.00
52319;BME280;38258;51.148;14.068;2022-10-04T05:53:45;98872.88;;;9.40;100.00
52319;BME280;38258;51.148;14.068;2022-10-04T05:56:28;98870.13;;;9.50;100.00
52319;BME280;38258;51.148;14.068;2022-10-04T05:59:07;98873.72;;;9.42;100.00
52319;BME280;38258;51.148;14.068;2022-10-04T06:01:47;98871.97;;;9.43;100.00
52319;BME280;38258;51.148;14.068;2022-10-04T06:04:36;98882.47;;;9.40;100.00
52319;BME280;38258;51.148;14.068;2022-10-04T06:07:15;98874.66;;;9.37;100.00
52319;BME280;38258;51.148;14.068;2022-10-04T06:09:55;98882.50;;;9.37;100.00
52319;BME280;38258;51.148;14.068;2022-10-04T06:12:34;98886.03;;;9.34;100.00
52319;BME280;38258;51.148;14.068;2022-10-04T06:15:24;98886.75;;;9.44;100.00
52319;BME280;38258;51.148;14.068;2022-10-04T06:18:15;98891.34;;;9.28;100.00
52319;BME280;38258;51.148;14.068;2022-10-04T06:21:04;98875.66;;;9.28;100.00
52319;BME280;38258;51.148;14.068;2022-10-04T06:23:43;98875.56;;;9.36;100.00
52319;BME280;38258;51.148;14.068;2022-10-04T06:26:17;98879.16;;;9.27;100.00
52319;BME280;38258;51.148;14.068;2022-10-04T06:28:47;98896.50;;;9.32;100.00
52319;BME280;38258;51.148;14.068;2022-10-04T06:38:03;98895.47;;;9.43;100.00
52319;BME280;38258;51.148;14.068;2022-10-04T06:40:55;98889.38;;;9.44;100.00
52319;BME280;38258;51.148;14.068;2022-10-04T06:43:39;98897.13;;;9.47;100.00
52319;BME280;38258;51.148;14.068;2022-10-04T06:46:14;98898.78;;;9.53;100.00
52319;BME280;38258;51.148;14.068;2022-10-04T06:48:59;98885.78;;;9.50;100.00
52319;BME280;38258;51.148;14.068;2022-10-04T06:51:55;98906.50;;;9.62;100.00
52319;BME280;38258;51.148;14.068;2022-10-04T06:54:43;98891.03;;;9.46;100.00
52319;BME280;38258;51.148;14.068;2022-10-04T06:57:38;98913.38;;;9.66;100.00
52319;BME280;38258;51.148;14.068;2022-10-04T07:00:15;98920.25;;;9.72;100.00
52319;BME280;38258;51.148;14.068;2022-10-04T07:02:48;98915.19;;;9.61;100.00
52319;BME280;38258;51.148;14.068;2022-10-04T07:05:26;98928.34;;;9.56;100.00
52319;BME280;38258;51.148;14.068;2022-10-04T07:08:04;98922.19;;;9.60;100.00
52319;BME280;38258;51.148;14.068;2022-10-04T07:10:39;98933.38;;;9.67;100.00
52319;BME280;38258;51.148;14.068;2022-10-04T07:13:19;98929.94;;;9.65;100.00
52319;BME280;38258;51.148;14.068;2022-10-04T07:15:55;98934.34;;;9.63;100.00
52319;BME280;38258;51.148;14.068;2022-10-04T07:18:28;98935.00;;;9.76;100.00
52319;BME280;38258;51.148;14.068;2022-10-04T07:21:06;98939.25;;;9.82;100.00
52319;BME280;38258;51.148;14.068;2022-10-04T07:23:40;98937.63;;;9.74;100.00
52319;BME280;38258;51.148;14.068;2022-10-04T07:26:20;98937.59;;;9.78;100.00
52319;BME280;38258;51.148;14.068;2022-10-04T07:28:53;98930.53;;;9.81;100.00
52319;BME280;38258;51.148;14.068;2022-10-04T07:31:40;98940.66;;;10.01;100.00
52319;BME280;38258;51.148;14.068;2022-10-04T07:34:09;98942.72;;;9.82;100.00
52319;BME280;38258;51.148;14.068;2022-10-04T07:36:41;98932.25;;;9.82;100.00
52319;BME280;38258;51.148;14.068;2022-10-04T07:39:13;98932.94;;;9.94;100.00
52319;BME280;38258;51.148;14.068;2022-10-04T07:41:45;98952.19;;;9.88;100.00
52319;BME280;38258;51.148;14.068;2022-10-04T07:44:22;98953.78;;;9.97;100.00
52319;BME280;38258;51.148;14.068;2022-10-04T07:46:56;98948.81;;;9.83;100.00
52319;BME280;38258;51.148;14.068;2022-10-04T07:49:24;98953.13;;;9.85;100.00
52319;BME280;38258;51.148;14.068;2022-10-04T07:52:15;98949.66;;;9.85;100.00
52319;BME280;38258;51.148;14.068;2022-10-04T07:54:50;98950.34;;;9.95;100.00
52319;BME280;38258;51.148;14.068;2022-10-04T07:57:25;98957.28;;;9.99;100.00
52319;BME280;38258;51.148;14.068;2022-10-04T08:00:03;98959.91;;;9.97;100.00
52319;BME280;38258;51.148;14.068;2022-10-04T08:02:45;98949.25;;;10.08;100.00
52319;BME280;38258;51.148;14.068;2022-10-04T08:05:19;98957.84;;;10.15;100.00
52319;BME280;38258;51.148;14.068;2022-10-04T08:08:07;98957.03;;;10.13;100.00
52319;BME280;38258;51.148;14.068;2022-10-04T08:10:49;98971.94;;;10.08;100.00
52319;BME280;38258;51.148;14.068;2022-10-04T08:13:27;98963.69;;;10.29;100.00
52319;BME280;38258;51.148;14.068;2022-10-04T08:16:02;98966.38;;;10.26;100.00
52319;BME280;38258;51.148;14.068;2022-10-04T08:18:37;98969.19;;;10.66;100.00
52319;BME280;38258;51.148;14.068;2022-10-04T08:21:14;98958.88;;;10.58;100.00
52319;BME280;38258;51.148;14.068;2022-10-04T08:23:46;98973.28;;;10.79;100.00
52319;BME280;38258;51.148;14.068;2022-10-04T08:26:36;98971.28;;;10.92;100.00
52319;BME280;38258;51.148;14.068;2022-10-04T08:29:20;98978.91;;;11.44;100.00
52319;BME280;38258;51.148;14.068;2022-10-04T08:32:25;98976.22;;;11.47;100.00
52319;BME280;38258;51.148;14.068;2022-10-04T08:35:20;98979.38;;;11.22;100.00
52319;BME280;38258;51.148;14.068;2022-10-04T08:38:04;98993.63;;;11.09;100.00
52319;BME280;38258;51.148;14.068;2022-10-04T08:40:51;98992.44;;;10.81;100.00
52319;BME280;38258;51.148;14.068;2022-10-04T08:43:49;99000.38;;;10.75;100.00
52319;BME280;38258;51.148;14.068;2022-10-04T08:46:32;98980.38;;;10.72;100.00
52319;BME280;38258;51.148;14.068;2022-10-04T08:49:34;98997.38;;;10.95;100.00
52319;BME280;38258;51.148;14.068;2022-10-04T08:52:27;98998.34;;;11.34;100.00
52319;BME280;38258;51.148;14.068;2022-10-04T08:58:11;98997.41;;;11.36;100.00
52319;BME280;38258;51.148;14.068;2022-10-04T09:01:07;98995.69;;;12.12;100.00
52319;BME280;38258;51.148;14.068;2022-10-04T09:06:50;98995.72;;;12.11;100.00
52319;BME280;38258;51.148;14.068;2022-10-04T09:12:54;99001.00;;;12.09;100.00
52319;BME280;38258;51.148;14.068;2022-10-04T09:15:32;99002.16;;;11.96;100.00
52319;BME280;38258;51.148;14.068;2022-10-04T09:18:18;98985.66;;;12.28;100.00
52319;BME280;38258;51.148;14.068;2022-10-04T09:20:53;98989.19;;;12.27;100.00
52319;BME280;38258;51.148;14.068;2022-10-04T09:23:54;98986.78;;;12.86;100.00
52319;BME280;38258;51.148;14.068;2022-10-04T09:26:30;98999.63;;;12.95;100.00
52319;BME280;38258;51.148;14.068;2022-10-04T09:29:33;98998.53;;;12.03;100.00
52319;BME280;38258;51.148;14.068;2022-10-04T09:39:01;99001.00;;;12.44;100.00
52319;BME280;38258;51.148;14.068;2022-10-04T09:41:51;98997.88;;;12.29;100.00
52319;BME280;38258;51.148;14.068;2022-10-04T09:44:54;98995.59;;;12.83;100.00
52319;BME280;38258;51.148;14.068;2022-10-04T09:47:33;98974.84;;;12.74;100.00
52319;BME280;38258;51.148;14.068;2022-10-04T09:50:36;98979.78;;;12.53;100.00
52319;BME280;38258;51.148;14.068;2022-10-04T09:53:22;98994.91;;;12.43;100.00
52319;BME280;38258;51.148;14.068;2022-10-04T10:02:09;98996.19;;;12.93;100.00
52319;BME280;38258;51.148;14.068;2022-10-04T10:05:06;98994.25;;;13.30;100.00
52319;BME280;38258;51.148;14.068;2022-10-04T10:07:47;99007.22;;;12.75;100.00
52319;BME280;38258;51.148;14.068;2022-10-04T10:10:25;99004.63;;;13.05;100.00
52319;BME280;38258;51.148;14.068;2022-10-04T10:13:25;99004.06;;;12.93;100.00
52319;BME280;38258;51.148;14.068;2022-10-04T10:16:17;98980.56;;;12.89;100.00
52319;BME280;38258;51.148;14.068;2022-10-04T10:18:59;98994.38;;;12.64;100.00
52319;BME280;38258;51.148;14.068;2022-10-04T10:21:43;98996.56;;;13.11;100.00
52319;BME280;38258;51.148;14.068;2022-10-04T10:24:35;99002.69;;;13.41;100.00
52319;BME280;38258;51.148;14.068;2022-10-04T10:27:17;98992.00;;;13.76;100.00
52319;BME280;38258;51.148;14.068;2022-10-04T10:30:07;99001.84;;;14.25;100.00
52319;BME280;38258;51.148;14.068;2022-10-04T10:32:53;99006.63;;;14.39;100.00
52319;BME280;38258;51.148;14.068;2022-10-04T10:35:27;99013.00;;;14.84;100.00
52319;BME280;38258;51.148;14.068;2022-10-04T10:38:15;99011.34;;;15.53;100.00
52319;BME280;38258;51.148;14.068;2022-10-04T10:41:03;99014.91;;;14.80;100.00
52319;BME280;38258;51.148;14.068;2022-10-04T10:43:50;99013.50;;;14.43;100.00
52319;BME280;38258;51.148;14.068;2022-10-04T10:46:35;99018.41;;;14.54;100.00
52319;BME280;38258;51.148;14.068;2022-10-04T10:49:30;99007.28;;;13.92;100.00
52319;BME280;38258;51.148;14.068;2022-10-04T10:52:54;99015.41;;;13.55;100.00
52319;BME280;38258;51.148;14.068;2022-10-04T10:55:41;99012.63;;;13.62;100.00
52319;BME280;38258;51.148;14.068;2022-10-04T11:01:35;99006.88;;;15.55;100.00
52319;BME280;38258;51.148;14.068;2022-10-04T11:04:24;99007.97;;;15.49;100.00
52319;BME280;38258;51.148;14.068;2022-10-04T11:10:10;99003.53;;;14.53;100.00
52319;BME280;38258;51.148;14.068;2022-10-04T11:13:03;99009.34;;;13.53;100.00
52319;BME280;38258;51.148;14.068;2022-10-04T11:16:10;99010.75;;;13.65;100.00
52319;BME280;38258;51.148;14.068;2022-10-04T11:19:16;99004.78;;;14.42;100.00
52319;BME280;38258;51.148;14.068;2022-10-04T11:25:25;98995.66;;;13.72;100.00
52319;BME280;38258;51.148;14.068;2022-10-04T11:28:06;99003.38;;;14.05;100.00
52319;BME280;38258;51.148;14.068;2022-10-04T11:31:00;98990.34;;;13.74;100.00
52319;BME280;38258;51.148;14.068;2022-10-04T11:34:09;98994.03;;;14.22;100.00
52319;BME280;38258;51.148;14.068;2022-10-04T11:36:51;98990.66;;;14.70;100.00
52319;BME280;38258;51.148;14.068;2022-10-04T11:42:43;98983.25;;;14.30;100.00
52319;BME280;38258;51.148;14.068;2022-10-04T11:45:31;98966.84;;;13.96;100.00
52319;BME280;38258;51.148;14.068;2022-10-04T11:48:14;98983.91;;;14.62;100.00
52319;BME280;38258;51.148;14.068;2022-10-04T11:51:08;98995.25;;;14.38;100.00
52319;BME280;38258;51.148;14.068;2022-10-04T11:54:01;98985.47;;;13.90;100.00
52319;BME280;38258;51.148;14.068;2022-10-04T11:59:48;98984.97;;;14.56;100.00
52319;BME280;38258;51.148;14.068;2022-10-04T12:02:39;98987.13;;;14.95;100.00
52319;BME280;38258;51.148;14.068;2022-10-04T12:08:32;98981.09;;;15.17;100.00
52319;BME280;38258;51.148;14.068;2022-10-04T12:11:29;98968.31;;;15.97;96.98
52319;BME280;38258;51.148;14.068;2022-10-04T12:14:24;98974.84;;;16.31;97.59
52319;BME280;38258;51.148;14.068;2022-10-04T12:17:33;98973.84;;;15.68;94.90
52319;BME280;38258;51.148;14.068;2022-10-04T12:29:54;98962.72;;;15.60;94.32
52319;BME280;38258;51.148;14.068;2022-10-04T12:32:31;98969.31;;;15.02;96.94
52319;BME280;38258;51.148;14.068;2022-10-04T12:35:08;98965.78;;;15.03;97.40
52319;BME280;38258;51.148;14.068;2022-10-04T12:38:03;98964.81;;;15.06;94.79
52319;BME280;38258;51.148;14.068;2022-10-04T12:40:38;98954.53;;;14.49;100.00
52319;BME280;38258;51.148;14.068;2022-10-04T12:43:14;98960.25;;;14.87;98.29
52319;BME280;38258;51.148;14.068;2022-10-04T12:45:53;98960.72;;;14.73;100.00
52319;BME280;38258;51.148;14.068;2022-10-04T12:48:29;98952.66;;;15.70;96.25
52319;BME280;38258;51.148;14.068;2022-10-04T12:51:08;98951.03;;;15.67;91.23
52319;BME280;38258;51.148;14.068;2022-10-04T12:53:45;98957.25;;;14.96;96.07
52319;BME280;38258;51.148;14.068;2022-10-04T12:56:27;98954.63;;;15.43;94.99
52319;BME280;38258;51.148;14.068;2022-10-04T12:59:11;98950.13;;;15.91;92.15
52319;BME280;38258;51.148;14.068;2022-10-04T13:01:51;98953.72;;;15.20;99.80
52319;BME280;38258;51.148;14.068;2022-10-04T13:04:30;98956.03;;;15.96;94.85
52319;BME280;38258;51.148;14.068;2022-10-04T13:07:34;98966.56;;;15.05;93.38
52319;BME280;38258;51.148;14.068;2022-10-04T13:10:30;98962.25;;;15.26;93.83
52319;BME280;38258;51.148;14.068;2022-10-04T13:16:06;98960.63;;;16.13;93.15
52319;BME280;38258;51.148;14.068;2022-10-04T13:18:44;98960.56;;;16.35;86.76
52319;BME280;38258;51.148;14.068;2022-10-04T13:21:21;98959.50;;;16.19;86.92
52319;BME280;38258;51.148;14.068;2022-10-04T13:24:00;98960.88;;;15.84;88.49
52319;BME280;38258;51.148;14.068;2022-10-04T13:26:36;98965.44;;;16.03;86.91
52319;BME280;38258;51.148;14.068;2022-10-04T13:29:19;98962.63;;;15.86;87.13
52319;BME280;38258;51.148;14.068;2022-10-04T13:31:55;98958.19;;;16.08;86.53
52319;BME280;38258;51.148;14.068;2022-10-04T13:34:31;98966.31;;;16.45;83.97
52319;BME280;38258;51.148;14.068;2022-10-04T13:37:19;98959.84;;;16.11;84.53
52319;BME280;38258;51.148;14.068;2022-10-04T13:40:19;98966.47;;;16.82;83.70
52319;BME280;38258;51.148;14.068;2022-10-04T13:43:01;98959.56;;;16.59;82.48
52319;BME280;38258;51.148;14.068;2022-10-04T13:45:38;98951.66;;;17.18;80.09
52319;BME280;38258;51.148;14.068;2022-10-04T13:48:30;98950.47;;;16.66;80.75
52319;BME280;38258;51.148;14.068;2022-10-04T13:51:15;98952.97;;;16.48;81.71
52319;BME280;38258;51.148;14.068;2022-10-04T13:53:53;98956.66;;;16.65;80.61
52319;BME280;38258;51.148;14.068;2022-10-04T13:56:55;98947.09;;;16.42;81.94
52319;BME280;38258;51.148;14.068;2022-10-04T13:59:32;98946.50;;;16.56;80.73
52319;BME280;38258;51.148;14.068;2022-10-04T14:08:45;98957.06;;;16.14;78.21
52319;BME280;38258;51.148;14.068;2022-10-04T14:11:42;98956.97;;;16.78;77.15
52319;BME280;38258;51.148;14.068;2022-10-04T14:17:35;98951.47;;;14.61;91.38
52319;BME280;38258;51.148;14.068;2022-10-04T14:26:35;98940.34;;;15.26;82.81
52319;BME280;38258;51.148;14.068;2022-10-04T14:29:31;98934.75;;;15.11;86.36
52319;BME280;38258;51.148;14.068;2022-10-04T14:32:24;98938.31;;;15.77;85.69
52319;BME280;38258;51.148;14.068;2022-10-04T14:35:01;98935.75;;;16.39;82.50
52319;BME280;38258;51.148;14.068;2022-10-04T14:40:52;98939.56;;;15.91;82.87
52319;BME280;38258;51.148;14.068;2022-10-04T14:44:01;98931.00;;;15.84;84.53
52319;BME280;38258;51.148;14.068;2022-10-04T14:46:44;98930.03;;;15.87;81.38
52319;BME280;38258;51.148;14.068;2022-10-04T14:49:21;98926.00;;;16.00;80.39
52319;BME280;38258;51.148;14.068;2022-10-04T14:52:14;98910.53;;;15.68;82.14
52319;BME280;38258;51.148;14.068;2022-10-04T14:54:51;98924.66;;;15.67;82.75
52319;BME280;38258;51.148;14.068;2022-10-04T15:00:24;98919.59;;;15.83;81.75
52319;BME280;38258;51.148;14.068;2022-10-04T15:03:16;98929.22;;;15.84;82.81
52319;BME280;38258;51.148;14.068;2022-10-04T15:06:24;98930.47;;;15.98;80.58
52319;BME280;38258;51.148;14.068;2022-10-04T15:12:01;98925.03;;;15.36;86.88
52319;BME280;38258;51.148;14.068;2022-10-04T15:15:03;98915.56;;;15.30;86.51
52319;BME280;38258;51.148;14.068;2022-10-04T15:17:41;98903.00;;;14.67;89.95
52319;BME280;38258;51.148;14.068;2022-10-04T15:20:15;98914.28;;;14.21;99.62